Wanamingo, MN (55983)

8:19 AM CST on February 01, 2015 (GMT -0600)
Covered Bridge Park | Change Station
CLOSE
Current Station
Personal Weather Station
Location: Zumbrota, MN
Elevation: 979 ft
Nearby Weather Stations

Elev 979 ft 44.30 °N, 92.68 °W | Updated 1 second ago

Snow
Snow
13.5 °F
Feels Like 0 °F
N
10.9
Wind Variable Wind from NE
Gusts 16.1 mph

Today
High -- | Low -- °F
--% Chance of Precip.
Yesterday
High -- | Low -- °F
Precip. -- in
7:29 AM 5:20 PM
Waxing Gibbous, 95% visible
Pressure 30.17 in
Visibility 2.0 miles
Clouds Overcast 600 ft
Windchill 0 °F
Dew Point 10 °F
Humidity 86%
Rainfall 0.02 in
Snow Depth Not available.
UV 0.0 out of 12
Pollen .10 out of 12
Air Quality Not available.
Flu Activity Not available.
METAR KSYN 011414Z AUTO 04014G22KT 2SM -SN OVC006 M10/M12 A3017 RMK AO2 T10971121

More Conditions Fewer Conditions

Pressure 30.17 in
Visibility 2.0 miles
Clouds Overcast 600 ft
Windchill 0 °F
Dew Point 10 °F
Humidity 86%
Rainfall 0.02 in
Snow Depth Not available.
UV 0.0 out of 12
Pollen .10 out of 12
Air Quality Not available.
Flu Activity Not available.
METAR KSYN 011414Z AUTO 04014G22KT 2SM -SN OVC006 M10/M12 A3017 RMK AO2 T10971121

More Conditions Fewer Conditions

Nowcast | as of 6:57 am CST on February 1, 2015

Steady light snow is begining to taper off across southern Minnesota and west central Wisconsin should end by noon today. Anywhere from a trace to 1 to 4 inches of snow fell overnight with the heavier amounts near the Iowa border. The trailing edge of snow runs roughly from Ladysmith Wisconsin to the Twin City Metro in east central Minnesota to Ortonville in west central Minnesota.

×

10-Day Weather Forecast

Almanac

Astronomy

Feb. 01, 2015 Rise Set
Actual Time
Civil Twilight
Nautical Twilight
Astronomical Twilight
Moon
Length of Visible Light
Length of Day
Tomorrow will be .
, % of the Moon is Illuminated

Today's Extremes

State Highs State Lows

Community

WunderPhotos

Upload Photos

1,792,362 photos uploaded!

WunderBlogs® & News

Nearby

Air Quality

  Air Quality AQ Index Pollutant
Not available.

Snow Depth

Station Depth Elevation

Earthquake Activity

City Distance Mag. Time & Date
Minimum magnitude displayed is 2.5.

Coastal Water Temperatures

Place Temperature

Nearby Weather Stations